Time,TemperatureF,DewpointF,PressureIn,WindDirection,WindDirectionDegrees,WindSpeedMPH,WindSpeedGustMPH,Humidity,HourlyPrecipIn,Conditions,Clouds,dailyrainin,SoftwareType,DateUTC
2013-01-09 00:00:00,51.6,49.4,30.34,NNE,26,0.0,0.0,92,0.00,,---,0.00,VWS V14.01,2013-01-09 05:00:00,
2013-01-09 00:01:00,51.5,49.3,30.34,NNE,26,0.0,0.0,92,0.00,,---,0.00,VWS V14.01,2013-01-09 05:01:00,
2013-01-09 00:03:00,51.5,49.3,30.34,NNE,26,0.0,0.0,92,0.00,,---,0.00,VWS V14.01,2013-01-09 05:03:00,
2013-01-09 00:08:00,51.5,49.3,30.34,NNE,26,0.0,0.0,92,0.00,,---,0.00,VWS V14.01,2013-01-09 05:08:00,
2013-01-09 00:13:00,51.5,49.3,30.34,NNE,27,0.0,0.0,92,0.00,,---,0.00,VWS V14.01,2013-01-09 05:13:00,
2013-01-09 00:18:00,51.4,49.2,30.34,NNE,27,0.0,0.0,92,0.00,,---,0.00,VWS V14.01,2013-01-09 05:18:00,
2013-01-09 00:23:00,51.2,49.0,30.33,NNE,27,0.0,0.0,92,0.00,,---,0.00,VWS V14.01,2013-01-09 05:23:00,
2013-01-09 00:28:00,51.1,48.9,30.33,NNE,27,0.0,0.0,92,0.00,,---,0.00,VWS V14.01,2013-01-09 05:28:00,
2013-01-09 00:33:00,51.0,48.8,30.33,NNE,26,0.0,0.0,92,0.00,,---,0.00,VWS V14.01,2013-01-09 05:33:00,
2013-01-09 00:38:00,51.0,48.8,30.33,NNE,27,0.0,0.0,92,0.00,,---,0.00,VWS V14.01,2013-01-09 05:38:00,
2013-01-09 00:43:00,51.0,48.8,30.33,NNE,27,0.0,0.0,92,0.00,,---,0.00,VWS V14.01,2013-01-09 05:43:00,
2013-01-09 00:48:00,51.0,48.8,30.33,NNE,27,0.0,0.0,92,0.00,,---,0.00,VWS V14.01,2013-01-09 05:48:00,
2013-01-09 00:53:00,50.9,48.7,30.33,NNE,27,0.0,0.0,92,0.00,,---,0.00,VWS V14.01,2013-01-09 05:53:00,
2013-01-09 00:58:00,50.8,48.6,30.33,NNE,26,0.0,0.0,92,0.00,,---,0.00,VWS V14.01,2013-01-09 05:58:00,
2013-01-09 01:03:00,50.8,48.6,30.33,NNE,27,0.0,0.0,92,0.00,,---,0.00,VWS V14.01,2013-01-09 06:03:00,
2013-01-09 01:08:00,50.7,48.5,30.33,NNE,26,0.0,0.0,92,0.00,,---,0.00,VWS V14.01,2013-01-09 06:08:00,
2013-01-09 01:13:00,50.7,48.5,30.33,NNE,26,0.0,0.0,92,0.00,,---,0.00,VWS V14.01,2013-01-09 06:13:00,
2013-01-09 01:18:00,50.7,48.5,30.33,NNE,27,0.0,0.0,92,0.00,,---,0.00,VWS V14.01,2013-01-09 06:18:00,
2013-01-09 01:23:00,50.7,48.5,30.33,NNE,26,0.0,0.0,92,0.00,,---,0.00,VWS V14.01,2013-01-09 06:23:00,
2013-01-09 01:28:00,50.6,48.4,30.33,NNE,27,0.0,0.0,92,0.00,,---,0.00,VWS V14.01,2013-01-09 06:28:00,
2013-01-09 01:33:00,50.5,48.3,30.33,NNE,26,0.0,0.0,92,0.00,,---,0.00,VWS V14.01,2013-01-09 06:33:00,
2013-01-09 01:38:00,50.5,48.3,30.33,NNE,27,0.0,0.0,92,0.00,,---,0.00,VWS V14.01,2013-01-09 06:38:00,
2013-01-09 01:43:00,50.5,48.3,30.33,NNE,27,0.0,0.0,92,0.00,,---,0.00,VWS V14.01,2013-01-09 06:43:00,
2013-01-09 01:48:00,50.4,48.2,30.33,NNE,27,0.0,0.0,92,0.00,,---,0.00,VWS V14.01,2013-01-09 06:48:00,
2013-01-09 01:53:00,50.5,48.6,30.33,NNE,26,0.0,0.0,93,0.00,,---,0.00,VWS V14.01,2013-01-09 06:53:00,
2013-01-09 01:58:00,50.3,48.1,30.33,NNE,27,0.0,0.0,92,0.00,,---,0.00,VWS V14.01,2013-01-09 06:58:00,
2013-01-09 02:03:00,50.3,48.1,30.33,NNE,27,0.0,0.0,92,0.00,,---,0.00,VWS V14.01,2013-01-09 07:03:00,
2013-01-09 02:08:00,50.2,48.0,30.33,NNE,27,0.0,0.0,92,0.00,,---,0.00,VWS V14.01,2013-01-09 07:08:00,
2013-01-09 02:13:00,50.1,47.9,30.33,NNE,26,0.0,0.0,92,0.00,,---,0.00,VWS V14.01,2013-01-09 07:13:00,
2013-01-09 02:18:00,50.1,47.9,30.33,NNE,27,0.0,0.0,92,0.00,,---,0.00,VWS V14.01,2013-01-09 07:18:00,
2013-01-09 02:23:00,50.0,47.8,30.32,NNE,27,0.0,0.0,92,0.00,,---,0.00,VWS V14.01,2013-01-09 07:23:00,
2013-01-09 02:28:00,49.9,47.7,30.32,NNE,26,0.0,0.0,92,0.00,,---,0.00,VWS V14.01,2013-01-09 07:28:00,
2013-01-09 02:33:00,49.9,48.0,30.32,NNE,27,0.0,0.0,93,0.00,,---,0.00,VWS V14.01,2013-01-09 07:33:00,
2013-01-09 02:38:00,49.8,47.6,30.32,NNE,26,0.0,0.0,92,0.00,,---,0.00,VWS V14.01,2013-01-09 07:38:00,
2013-01-09 02:42:00,49.8,47.9,30.32,NNE,27,0.0,0.0,93,0.00,,---,0.00,VWS V14.01,2013-01-09 07:42:00,
2013-01-09 02:47:00,49.7,47.8,30.32,NNE,27,0.0,0.0,93,0.00,,---,0.00,VWS V14.01,2013-01-09 07:47:00,
2013-01-09 02:52:00,49.6,47.4,30.33,NNE,27,0.0,0.0,92,0.00,,---,0.00,VWS V14.01,2013-01-09 07:52:00,
2013-01-09 02:57:00,49.6,47.4,30.33,NNE,27,0.0,5.0,92,0.00,,---,0.00,VWS V14.01,2013-01-09 07:57:00,
2013-01-09 03:02:00,49.7,47.5,30.33,NNE,27,0.0,0.0,92,0.00,,---,0.00,VWS V14.01,2013-01-09 08:02:00,
2013-01-09 03:07:00,49.6,47.4,30.33,NNE,27,0.0,4.0,92,0.00,,---,0.00,VWS V14.01,2013-01-09 08:07:00,
2013-01-09 03:12:00,49.7,47.8,30.33,NNE,27,0.0,0.0,93,0.00,,---,0.00,VWS V14.01,2013-01-09 08:12:00,
2013-01-09 03:17:00,49.9,48.0,30.33,NNE,27,0.0,5.0,93,0.00,,---,0.00,VWS V14.01,2013-01-09 08:17:00,
2013-01-09 03:22:00,49.8,47.9,30.32,NNE,27,4.0,5.0,93,0.00,,---,0.00,VWS V14.01,2013-01-09 08:22:00,
2013-01-09 03:27:00,50.0,48.1,30.32,NNE,26,0.0,0.0,93,0.00,,---,0.00,VWS V14.01,2013-01-09 08:27:00,
2013-01-09 03:32:00,50.0,48.1,30.32,NNE,27,0.0,0.0,93,0.00,,---,0.00,VWS V14.01,2013-01-09 08:32:00,
2013-01-09 03:37:00,50.0,47.8,30.32,NNE,27,0.0,0.0,92,0.00,,---,0.00,VWS V14.01,2013-01-09 08:37:00,
2013-01-09 03:42:00,49.9,47.7,30.32,NNE,26,0.0,0.0,92,0.00,,---,0.00,VWS V14.01,2013-01-09 08:42:00,
2013-01-09 03:48:00,49.9,47.7,30.32,NNE,27,0.0,0.0,92,0.00,,---,0.00,VWS V14.01,2013-01-09 08:48:00,
2013-01-09 03:53:00,49.9,47.7,30.32,NNE,27,0.0,0.0,92,0.00,,---,0.00,VWS V14.01,2013-01-09 08:53:00,
2013-01-09 03:57:00,49.9,47.7,30.32,NNE,26,0.0,0.0,92,0.00,,---,0.00,VWS V14.01,2013-01-09 08:57:00,
2013-01-09 04:03:00,50.0,47.8,30.32,NNE,26,0.0,0.0,92,0.00,,---,0.00,VWS V14.01,2013-01-09 09:03:00,
2013-01-09 04:08:00,50.0,47.8,30.32,NNE,27,0.0,0.0,92,0.00,,---,0.00,VWS V14.01,2013-01-09 09:08:00,
2013-01-09 04:13:00,50.0,47.8,30.32,NNE,27,0.0,0.0,92,0.00,,---,0.00,VWS V14.01,2013-01-09 09:13:00,
2013-01-09 04:18:00,50.1,47.9,30.32,NNE,27,0.0,0.0,92,0.00,,---,0.00,VWS V14.01,2013-01-09 09:18:00,
2013-01-09 04:23:00,50.3,48.1,30.33,NNE,27,0.0,0.0,92,0.00,,---,0.00,VWS V14.01,2013-01-09 09:23:00,
2013-01-09 04:28:00,50.5,48.3,30.33,NNE,26,0.0,0.0,92,0.00,,---,0.00,VWS V14.01,2013-01-09 09:28:00,
2013-01-09 04:33:00,50.6,48.7,30.33,NNE,27,0.0,0.0,93,0.00,,---,0.00,VWS V14.01,2013-01-09 09:33:00,
2013-01-09 04:38:00,50.7,48.5,30.33,NNE,27,0.0,0.0,92,0.00,,---,0.00,VWS V14.01,2013-01-09 09:38:00,
2013-01-09 04:43:00,50.7,48.5,30.33,NNE,27,0.0,0.0,92,0.00,,---,0.00,VWS V14.01,2013-01-09 09:43:00,
2013-01-09 04:48:00,50.7,48.5,30.33,NNE,27,0.0,0.0,92,0.00,,---,0.00,VWS V14.01,2013-01-09 09:48:00,
2013-01-09 04:53:00,50.7,48.5,30.33,NNE,26,5.0,7.0,92,0.00,,---,0.00,VWS V14.01,2013-01-09 09:53:00,
2013-01-09 04:58:00,50.8,48.6,30.33,NNE,26,5.0,6.0,92,0.00,,---,0.00,VWS V14.01,2013-01-09 09:58:00,
2013-01-09 05:03:00,51.0,48.8,30.33,NNE,26,4.0,6.0,92,0.00,,---,0.00,VWS V14.01,2013-01-09 10:03:00,
2013-01-09 05:08:00,51.0,48.8,30.33,NNE,26,0.0,5.0,92,0.00,,---,0.00,VWS V14.01,2013-01-09 10:08:00,
2013-01-09 05:12:00,51.1,48.9,30.33,NNE,25,0.0,5.0,92,0.00,,---,0.00,VWS V14.01,2013-01-09 10:12:00,
2013-01-09 05:17:00,51.2,49.0,30.33,NNE,25,0.0,0.0,92,0.00,,---,0.00,VWS V14.01,2013-01-09 10:17:00,
2013-01-09 05:22:00,51.4,49.5,30.33,NNE,25,0.0,0.0,93,0.00,,---,0.00,VWS V14.01,2013-01-09 10:22:00,
2013-01-09 05:27:00,51.5,49.3,30.33,NNE,25,5.0,6.0,92,0.00,,---,0.00,VWS V14.01,2013-01-09 10:27:00,
2013-01-09 05:32:00,51.5,49.3,30.33,NNE,25,0.0,6.0,92,0.00,,---,0.00,VWS V14.01,2013-01-09 10:32:00,
2013-01-09 05:38:00,51.5,49.3,30.33,NNE,25,0.0,0.0,92,0.00,,---,0.00,VWS V14.01,2013-01-09 10:38:00,
2013-01-09 05:43:00,51.6,49.4,30.33,NNE,25,0.0,0.0,92,0.00,,---,0.00,VWS V14.01,2013-01-09 10:43:00,
2013-01-09 05:48:00,51.6,49.4,30.33,NNE,25,0.0,0.0,92,0.00,,---,0.00,VWS V14.01,2013-01-09 10:48:00,
2013-01-09 05:53:00,51.5,49.3,30.32,NNE,25,6.0,7.0,92,0.00,,---,0.00,VWS V14.01,2013-01-09 10:53:00,
2013-01-09 05:58:00,51.4,49.2,30.32,NNE,25,5.0,7.0,92,0.00,,---,0.00,VWS V14.01,2013-01-09 10:58:00,
2013-01-09 06:02:00,51.4,49.2,30.32,NNE,25,0.0,7.0,92,0.00,,---,0.00,VWS V14.01,2013-01-09 11:02:00,
2013-01-09 06:07:00,51.5,49.3,30.33,NNE,25,4.0,7.0,92,0.00,,---,0.00,VWS V14.01,2013-01-09 11:07:00,
2013-01-09 06:12:00,51.5,49.3,30.33,NNE,25,5.0,6.0,92,0.00,,---,0.00,VWS V14.01,2013-01-09 11:12:00,
2013-01-09 06:17:00,51.4,49.2,30.33,NNE,25,5.0,6.0,92,0.00,,---,0.00,VWS V14.01,2013-01-09 11:17:00,
2013-01-09 06:22:00,51.4,49.2,30.33,NNE,24,4.0,6.0,92,0.00,,---,0.00,VWS V14.01,2013-01-09 11:22:00,
2013-01-09 06:27:00,51.6,49.4,30.33,NNE,24,6.0,6.0,92,0.00,,---,0.00,VWS V14.01,2013-01-09 11:27:00,
2013-01-09 06:32:00,51.8,49.5,30.33,NNE,24,4.0,7.0,92,0.00,,---,0.00,VWS V14.01,2013-01-09 11:32:00,
2013-01-09 06:37:00,51.8,49.5,30.34,NNE,24,5.0,7.0,92,0.00,,---,0.00,VWS V14.01,2013-01-09 11:37:00,
2013-01-09 06:42:00,51.9,49.7,30.34,NNE,24,5.0,7.0,92,0.00,,---,0.00,VWS V14.01,2013-01-09 11:42:00,
2013-01-09 06:47:00,51.8,49.5,30.34,NNE,23,6.0,7.0,92,0.00,,---,0.00,VWS V14.01,2013-01-09 11:47:00,
2013-01-09 06:52:00,51.8,49.5,30.34,NNE,23,4.0,6.0,92,0.00,,---,0.00,VWS V14.01,2013-01-09 11:52:00,
2013-01-09 06:57:00,51.9,49.7,30.34,NNE,23,0.0,6.0,92,0.00,,---,0.00,VWS V14.01,2013-01-09 11:57:00,
2013-01-09 07:02:00,51.9,49.7,30.34,NNE,23,0.0,0.0,92,0.00,,---,0.00,VWS V14.01,2013-01-09 12:02:00,
2013-01-09 07:07:00,52.0,49.8,30.35,NNE,23,0.0,0.0,92,0.00,,---,0.00,VWS V14.01,2013-01-09 12:07:00,
2013-01-09 07:12:00,52.1,49.8,30.35,NNE,23,0.0,0.0,92,0.00,,---,0.00,VWS V14.01,2013-01-09 12:12:00,
2013-01-09 07:17:00,52.0,49.8,30.35,NNE,23,0.0,0.0,92,0.00,,---,0.00,VWS V14.01,2013-01-09 12:17:00,
2013-01-09 07:22:00,52.1,49.8,30.36,NNE,23,0.0,0.0,92,0.00,,---,0.00,VWS V14.01,2013-01-09 12:22:00,
2013-01-09 07:27:00,52.1,49.8,30.36,NNE,23,0.0,0.0,92,0.00,,---,0.00,VWS V14.01,2013-01-09 12:27:00,
2013-01-09 07:32:00,52.2,50.0,30.36,NNE,23,0.0,0.0,92,0.00,,---,0.00,VWS V14.01,2013-01-09 12:32:00,
2013-01-09 07:37:00,52.3,50.0,30.36,NNE,23,0.0,0.0,92,0.00,,---,0.00,VWS V14.01,2013-01-09 12:37:00,
2013-01-09 07:42:00,52.4,50.2,30.36,NNE,23,0.0,0.0,92,0.00,,---,0.00,VWS V14.01,2013-01-09 12:42:00,
2013-01-09 07:47:00,52.5,50.2,30.36,NNE,23,6.0,6.0,92,0.00,,---,0.00,VWS V14.01,2013-01-09 12:47:00,
2013-01-09 07:52:00,52.7,50.5,30.37,NNE,22,4.0,7.0,92,0.00,,---,0.00,VWS V14.01,2013-01-09 12:52:00,
2013-01-09 07:57:00,52.8,50.5,30.37,NNE,22,5.0,6.0,92,0.00,,---,0.00,VWS V14.01,2013-01-09 12:57:00,
2013-01-09 08:02:00,52.9,50.6,30.37,NNE,22,4.0,6.0,92,0.00,,---,0.00,VWS V14.01,2013-01-09 13:02:00,
2013-01-09 08:07:00,53.1,50.8,30.38,NNE,22,4.0,6.0,92,0.00,,---,0.00,VWS V14.01,2013-01-09 13:07:00,
2013-01-09 08:12:00,53.2,50.9,30.38,NNE,22,0.0,4.0,92,0.00,,---,0.00,VWS V14.01,2013-01-09 13:12:00,
2013-01-09 08:17:00,53.4,51.1,30.38,NNE,22,0.0,0.0,92,0.00,,---,0.00,VWS V14.01,2013-01-09 13:17:00,
2013-01-09 08:22:00,53.5,51.2,30.38,NNE,22,5.0,7.0,92,0.00,,---,0.00,VWS V14.01,2013-01-09 13:22:00,
2013-01-09 08:28:00,53.5,51.2,30.38,NNE,22,6.0,7.0,92,0.00,,---,0.00,VWS V14.01,2013-01-09 13:28:00,
2013-01-09 08:33:00,53.5,51.2,30.38,NNE,22,5.0,9.0,92,0.00,,---,0.00,VWS V14.01,2013-01-09 13:33:00,
2013-01-09 08:38:00,53.6,51.3,30.38,NNE,22,5.0,9.0,92,0.00,,---,0.00,VWS V14.01,2013-01-09 13:38:00,
2013-01-09 08:43:00,53.6,51.3,30.38,NNE,22,7.0,9.0,92,0.00,,---,0.00,VWS V14.01,2013-01-09 13:43:00,
2013-01-09 08:48:00,53.6,51.3,30.38,NNE,22,6.0,9.0,92,0.00,,---,0.00,VWS V14.01,2013-01-09 13:48:00,
2013-01-09 08:52:00,53.6,51.3,30.39,NNE,19,5.0,9.0,92,0.00,,---,0.00,VWS V14.01,2013-01-09 13:52:00,
2013-01-09 08:57:00,53.7,51.4,30.39,NNE,19,5.0,7.0,92,0.00,,---,0.00,VWS V14.01,2013-01-09 13:57:00,
2013-01-09 09:02:00,53.9,51.6,30.39,NNE,19,4.0,7.0,92,0.00,,---,0.00,VWS V14.01,2013-01-09 14:02:00,
2013-01-09 09:07:00,53.9,51.6,30.39,NNE,19,6.0,7.0,92,0.00,,---,0.00,VWS V14.01,2013-01-09 14:07:00,
2013-01-09 09:12:00,54.1,51.8,30.39,NNE,19,5.0,6.0,92,0.00,,---,0.00,VWS V14.01,2013-01-09 14:12:00,
2013-01-09 09:17:00,54.1,51.8,30.39,NNE,19,5.0,7.0,92,0.00,,---,0.00,VWS V14.01,2013-01-09 14:17:00,
2013-01-09 09:22:00,54.3,52.0,30.39,NNE,20,5.0,7.0,92,0.00,,---,0.00,VWS V14.01,2013-01-09 14:22:00,
2013-01-09 09:27:00,54.6,52.3,30.39,NNE,20,3.0,9.0,92,0.00,,---,0.00,VWS V14.01,2013-01-09 14:27:00,
2013-01-09 09:32:00,55.1,52.8,30.39,NNE,17,4.0,9.0,92,0.00,,---,0.00,VWS V14.01,2013-01-09 14:32:00,
2013-01-09 09:38:00,55.6,53.3,30.38,NNE,17,7.0,7.0,92,0.00,,---,0.00,VWS V14.01,2013-01-09 14:38:00,
2013-01-09 09:43:00,55.7,53.1,30.38,NNE,18,5.0,7.0,91,0.00,,---,0.00,VWS V14.01,2013-01-09 14:43:00,
2013-01-09 09:48:00,55.9,53.3,30.38,NNE,18,5.0,6.0,91,0.00,,---,0.00,VWS V14.01,2013-01-09 14:48:00,
2013-01-09 09:52:00,55.9,53.3,30.38,NNE,19,5.0,6.0,91,0.00,,---,0.00,VWS V14.01,2013-01-09 14:52:00,
2013-01-09 09:57:00,55.9,53.0,30.38,NNE,20,5.0,7.0,90,0.00,,---,0.00,VWS V14.01,2013-01-09 14:57:00,
2013-01-09 10:02:00,56.1,53.2,30.38,NNE,20,6.0,9.0,90,0.00,,---,0.00,VWS V14.01,2013-01-09 15:02:00,
2013-01-09 10:07:00,56.6,53.7,30.38,NNE,21,3.0,7.0,90,0.00,,---,0.00,VWS V14.01,2013-01-09 15:07:00,
2013-01-09 10:12:00,56.8,53.9,30.38,NNE,20,3.0,9.0,90,0.00,,---,0.00,VWS V14.01,2013-01-09 15:12:00,
2013-01-09 10:17:00,56.8,53.6,30.38,NNE,19,5.0,6.0,89,0.00,,---,0.00,VWS V14.01,2013-01-09 15:17:00,
2013-01-09 10:23:00,56.8,53.6,30.38,NNE,19,4.0,7.0,89,0.00,,---,0.00,VWS V14.01,2013-01-09 15:23:00,
2013-01-09 10:27:00,56.9,53.7,30.38,NNE,19,5.0,7.0,89,0.00,,---,0.00,VWS V14.01,2013-01-09 15:27:00,
2013-01-09 10:32:00,57.1,53.9,30.38,NNE,19,4.0,7.0,89,0.00,,---,0.00,VWS V14.01,2013-01-09 15:32:00,
2013-01-09 10:37:00,57.5,54.3,30.37,NNE,19,6.0,7.0,89,0.00,,---,0.00,VWS V14.01,2013-01-09 15:37:00,
2013-01-09 10:42:00,57.7,54.5,30.37,NNE,18,4.0,8.0,89,0.00,,---,0.00,VWS V14.01,2013-01-09 15:42:00,
2013-01-09 10:47:00,58.0,54.5,30.37,NNE,19,5.0,8.0,88,0.00,,---,0.00,VWS V14.01,2013-01-09 15:47:00,
2013-01-09 10:52:00,58.2,54.7,30.36,NNE,19,3.0,7.0,88,0.00,,---,0.00,VWS V14.01,2013-01-09 15:52:00,
2013-01-09 10:57:00,58.3,54.5,30.36,NNE,20,5.0,8.0,87,0.00,,---,0.00,VWS V14.01,2013-01-09 15:57:00,
2013-01-09 11:02:00,58.4,54.5,30.36,NNE,20,2.0,2.0,87,0.00,,---,0.00,VWS V14.01,2013-01-09 16:02:00,
2013-01-09 11:07:00,58.4,54.5,30.36,NNE,20,4.0,5.0,87,0.00,,---,0.00,VWS V14.01,2013-01-09 16:07:00,
2013-01-09 11:12:00,58.4,54.5,30.36,NNE,20,0.0,5.0,87,0.00,,---,0.00,VWS V14.01,2013-01-09 16:12:00,
2013-01-09 11:17:00,58.5,54.3,30.36,NNE,20,0.0,0.0,86,0.00,,---,0.00,VWS V14.01,2013-01-09 16:17:00,
2013-01-09 11:22:00,58.5,54.3,30.36,NNE,20,0.0,0.0,86,0.00,,---,0.00,VWS V14.01,2013-01-09 16:22:00,
2013-01-09 11:27:00,58.7,54.5,30.36,NNE,20,0.0,0.0,86,0.00,,---,0.00,VWS V14.01,2013-01-09 16:27:00,
2013-01-09 11:32:00,58.9,54.7,30.36,NNE,20,5.0,6.0,86,0.00,,---,0.00,VWS V14.01,2013-01-09 16:32:00,
2013-01-09 11:37:00,59.1,54.9,30.35,NNE,20,4.0,6.0,86,0.00,,---,0.00,VWS V14.01,2013-01-09 16:37:00,
2013-01-09 11:42:00,59.3,54.8,30.35,NNE,20,4.0,5.0,85,0.00,,---,0.00,VWS V14.01,2013-01-09 16:42:00,
2013-01-09 11:47:00,59.4,54.9,30.35,NNE,20,0.0,5.0,85,0.00,,---,0.00,VWS V14.01,2013-01-09 16:47:00,
2013-01-09 11:52:00,59.6,54.8,30.34,NNE,20,0.0,0.0,84,0.00,,---,0.00,VWS V14.01,2013-01-09 16:52:00,
2013-01-09 11:57:00,59.9,55.1,30.34,NNE,20,0.0,0.0,84,0.00,,---,0.00,VWS V14.01,2013-01-09 16:57:00,
2013-01-09 12:02:00,60.1,55.3,30.34,NNE,20,0.0,0.0,84,0.00,,---,0.00,VWS V14.01,2013-01-09 17:02:00,
2013-01-09 12:07:00,60.6,55.4,30.33,NNE,20,5.0,5.0,83,0.00,,---,0.00,VWS V14.01,2013-01-09 17:07:00,
2013-01-09 12:12:00,61.0,55.5,30.33,NNE,21,5.0,6.0,82,0.00,,---,0.00,VWS V14.01,2013-01-09 17:12:00,
2013-01-09 12:17:00,61.4,55.9,30.33,NNE,21,4.0,5.0,82,0.00,,---,0.00,VWS V14.01,2013-01-09 17:17:00,
2013-01-09 12:22:00,62.0,56.1,30.33,NNE,24,7.0,7.0,81,0.00,,---,0.00,VWS V14.01,2013-01-09 17:22:00,
2013-01-09 12:27:00,62.2,56.0,30.33,NNE,25,1.0,6.0,80,0.00,,---,0.00,VWS V14.01,2013-01-09 17:27:00,
2013-01-09 12:32:00,62.4,55.8,30.33,NNE,25,0.0,5.0,79,0.00,,---,0.00,VWS V14.01,2013-01-09 17:32:00,
2013-01-09 12:37:00,62.6,56.0,30.33,NNE,24,4.0,5.0,79,0.00,,---,0.00,VWS V14.01,2013-01-09 17:37:00,
2013-01-09 12:42:00,62.7,56.1,30.33,NNE,24,5.0,6.0,79,0.00,,---,0.00,VWS V14.01,2013-01-09 17:42:00,
2013-01-09 12:47:00,62.7,55.8,30.33,NNE,24,4.0,5.0,78,0.00,,---,0.00,VWS V14.01,2013-01-09 17:47:00,
2013-01-09 12:52:00,62.7,55.8,30.32,NNE,24,4.0,6.0,78,0.00,,---,0.00,VWS V14.01,2013-01-09 17:52:00,
2013-01-09 12:57:00,63.1,56.1,30.32,NNE,24,0.0,2.0,78,0.00,,---,0.00,VWS V14.01,2013-01-09 17:57:00,
2013-01-09 13:02:00,63.5,56.5,30.32,NNE,24,0.0,1.0,78,0.00,,---,0.00,VWS V14.01,2013-01-09 18:02:00,
2013-01-09 13:07:00,63.8,56.1,30.32,NNE,24,0.0,0.0,76,0.00,,---,0.00,VWS V14.01,2013-01-09 18:07:00,
2013-01-09 13:12:00,63.9,56.2,30.32,NNE,24,0.0,0.0,76,0.00,,---,0.00,VWS V14.01,2013-01-09 18:12:00,
2013-01-09 13:17:00,64.0,55.9,30.32,NNE,24,4.0,5.0,75,0.00,,---,0.00,VWS V14.01,2013-01-09 18:17:00,
2013-01-09 13:22:00,64.1,56.0,30.31,NNE,24,0.0,0.0,75,0.00,,---,0.00,VWS V14.01,2013-01-09 18:22:00,
2013-01-09 13:27:00,64.4,55.9,30.31,NNE,24,1.0,5.0,74,0.00,,---,0.00,VWS V14.01,2013-01-09 18:27:00,
2013-01-09 13:32:00,65.1,56.2,30.31,NNE,23,5.0,6.0,73,0.00,,---,0.00,VWS V14.01,2013-01-09 18:32:00,
2013-01-09 13:37:00,65.7,56.4,30.31,NNE,22,5.0,7.0,72,0.00,,---,0.00,VWS V14.01,2013-01-09 18:37:00,
2013-01-09 13:41:00,65.8,56.2,30.31,NNE,22,6.0,6.0,71,0.00,,---,0.00,VWS V14.01,2013-01-09 18:41:00,
2013-01-09 13:42:00,65.8,56.2,30.31,NNE,22,6.0,6.0,71,0.00,,---,0.00,VWS V14.01,2013-01-09 18:42:00,
2013-01-09 13:44:00,65.9,56.2,30.31,NNE,22,4.0,6.0,71,0.00,,---,0.00,VWS V14.01,2013-01-09 18:44:00,
2013-01-09 13:45:00,65.9,56.2,30.31,NNE,22,4.0,6.0,71,0.00,,---,0.00,VWS V14.01,2013-01-09 18:45:00,
2013-01-09 13:48:00,66.1,56.4,30.31,NNE,22,4.0,5.0,71,0.00,,---,0.00,VWS V14.01,2013-01-09 18:48:00,
2013-01-09 13:49:00,66.0,56.3,30.31,NNE,22,5.0,6.0,71,0.00,,---,0.00,VWS V14.01,2013-01-09 18:49:00,
2013-01-09 13:54:00,66.2,56.1,30.32,NNE,22,4.0,6.0,70,0.00,,---,0.00,VWS V14.01,2013-01-09 18:54:00,
2013-01-09 13:59:00,66.3,56.6,30.32,NNE,22,3.0,5.0,71,0.00,,---,0.00,VWS V14.01,2013-01-09 18:59:00,
2013-01-09 14:04:00,66.5,56.8,30.32,NNE,22,4.0,6.0,71,0.00,,---,0.00,VWS V14.01,2013-01-09 19:04:00,
2013-01-09 14:09:00,66.8,57.1,30.32,NNE,21,4.0,5.0,71,0.00,,---,0.00,VWS V14.01,2013-01-09 19:09:00,
2013-01-09 14:14:00,66.8,56.7,30.32,NNE,21,5.0,6.0,70,0.00,,---,0.00,VWS V14.01,2013-01-09 19:14:00,
2013-01-09 14:19:00,66.8,56.3,30.32,NNE,22,5.0,6.0,69,0.00,,---,0.00,VWS V14.01,2013-01-09 19:19:00,
2013-01-09 14:24:00,66.7,56.6,30.32,NNE,22,3.0,6.0,70,0.00,,---,0.00,VWS V14.01,2013-01-09 19:24:00,
2013-01-09 14:29:00,66.6,56.5,30.32,NNE,22,3.0,6.0,70,0.00,,---,0.00,VWS V14.01,2013-01-09 19:29:00,
2013-01-09 14:34:00,66.5,56.8,30.32,NNE,22,3.0,4.0,71,0.00,,---,0.00,VWS V14.01,2013-01-09 19:34:00,
2013-01-09 14:39:00,66.7,57.0,30.32,NNE,22,0.0,0.0,71,0.00,,---,0.00,VWS V14.01,2013-01-09 19:39:00,
2013-01-09 14:44:00,66.9,56.8,30.32,NNE,22,0.0,0.0,70,0.00,,---,0.00,VWS V14.01,2013-01-09 19:44:00,
2013-01-09 14:49:00,67.1,57.0,30.32,NNE,22,0.0,0.0,70,0.00,,---,0.00,VWS V14.01,2013-01-09 19:49:00,
2013-01-09 14:54:00,67.5,57.4,30.32,NNE,22,0.0,0.0,70,0.00,,---,0.00,VWS V14.01,2013-01-09 19:54:00,
2013-01-09 14:59:00,67.9,57.8,30.32,NNE,22,0.0,2.0,70,0.00,,---,0.00,VWS V14.01,2013-01-09 19:59:00,
2013-01-09 15:04:00,68.1,57.6,30.32,NNE,22,3.0,4.0,69,0.00,,---,0.00,VWS V14.01,2013-01-09 20:04:00,
2013-01-09 15:09:00,68.1,57.6,30.33,NNE,22,0.0,0.0,69,0.00,,---,0.00,VWS V14.01,2013-01-09 20:09:00,
2013-01-09 15:14:00,68.4,58.2,30.33,NNE,22,0.0,0.0,70,0.00,,---,0.00,VWS V14.01,2013-01-09 20:14:00,
2013-01-09 15:19:00,68.6,58.0,30.33,NNE,22,0.0,0.0,69,0.00,,---,0.00,VWS V14.01,2013-01-09 20:19:00,
2013-01-09 15:24:00,68.5,57.9,30.32,NNE,22,0.0,0.0,69,0.00,,---,0.00,VWS V14.01,2013-01-09 20:24:00,
2013-01-09 15:29:00,68.3,57.8,30.32,NNE,22,0.0,0.0,69,0.00,,---,0.00,VWS V14.01,2013-01-09 20:29:00,
2013-01-09 15:34:00,68.5,57.9,30.32,NNE,22,0.0,0.0,69,0.00,,---,0.00,VWS V14.01,2013-01-09 20:34:00,
2013-01-09 15:39:00,68.4,57.8,30.32,NNE,22,0.0,0.0,69,0.00,,---,0.00,VWS V14.01,2013-01-09 20:39:00,
2013-01-09 15:44:00,68.2,57.7,30.32,NNE,22,0.0,0.0,69,0.00,,---,0.00,VWS V14.01,2013-01-09 20:44:00,
2013-01-09 15:49:00,68.1,57.6,30.32,NNE,22,0.0,0.0,69,0.00,,---,0.00,VWS V14.01,2013-01-09 20:49:00,
2013-01-09 15:54:00,67.4,56.1,30.32,NNE,22,0.0,0.0,67,0.00,,---,0.00,VWS V14.01,2013-01-09 20:54:00,
2013-01-09 15:59:00,64.7,54.3,30.32,NNE,22,0.0,0.0,69,0.00,,---,0.00,VWS V14.01,2013-01-09 20:59:00,
2013-01-09 16:04:00,63.2,54.0,30.32,NNE,22,0.0,0.0,72,0.00,,---,0.00,VWS V14.01,2013-01-09 21:04:00,
2013-01-09 16:09:00,61.7,53.7,30.33,NNE,22,0.0,0.0,75,0.00,,---,0.00,VWS V14.01,2013-01-09 21:09:00,
2013-01-09 16:14:00,61.1,53.5,30.33,NNE,22,0.0,0.0,76,0.00,,---,0.00,VWS V14.01,2013-01-09 21:14:00,
2013-01-09 16:19:00,61.0,54.1,30.33,NNE,22,0.0,0.0,78,0.00,,---,0.00,VWS V14.01,2013-01-09 21:19:00,
2013-01-09 16:24:00,60.8,53.9,30.33,NNE,22,0.0,0.0,78,0.00,,---,0.00,VWS V14.01,2013-01-09 21:24:00,
2013-01-09 16:29:00,60.9,54.3,30.33,NNE,22,0.0,0.0,79,0.00,,---,0.00,VWS V14.01,2013-01-09 21:29:00,
2013-01-09 16:34:00,61.1,54.5,30.33,NNE,22,0.0,0.0,79,0.00,,---,0.00,VWS V14.01,2013-01-09 21:34:00,
2013-01-09 16:39:00,61.4,54.8,30.33,NNE,22,0.0,0.0,79,0.00,,---,0.00,VWS V14.01,2013-01-09 21:39:00,
2013-01-09 16:44:00,61.6,55.0,30.33,NNE,22,0.0,0.0,79,0.00,,---,0.00,VWS V14.01,2013-01-09 21:44:00,
2013-01-09 16:49:00,61.6,54.7,30.33,NNE,22,0.0,0.0,78,0.00,,---,0.00,VWS V14.01,2013-01-09 21:49:00,
2013-01-09 16:54:00,60.7,53.8,30.34,NNE,22,0.0,0.0,78,0.00,,---,0.00,VWS V14.01,2013-01-09 21:54:00,
2013-01-09 16:59:00,60.3,53.8,30.34,NNE,22,0.0,0.0,79,0.00,,---,0.00,VWS V14.01,2013-01-09 21:59:00,
2013-01-09 17:04:00,60.0,53.8,30.34,NNE,22,0.0,0.0,80,0.00,,---,0.00,VWS V14.01,2013-01-09 22:04:00,
2013-01-09 17:09:00,60.1,54.3,30.34,NNE,22,0.0,0.0,81,0.00,,---,0.00,VWS V14.01,2013-01-09 22:09:00,
2013-01-09 17:14:00,60.3,54.5,30.34,NNE,22,0.0,0.0,81,0.00,,---,0.00,VWS V14.01,2013-01-09 22:14:00,
2013-01-09 17:19:00,60.4,54.5,30.34,NNE,22,0.0,0.0,81,0.00,,---,0.00,VWS V14.01,2013-01-09 22:19:00,
2013-01-09 17:24:00,60.7,55.2,30.34,NNE,22,0.0,0.0,82,0.00,,---,0.00,VWS V14.01,2013-01-09 22:24:00,
2013-01-09 17:29:00,61.0,55.5,30.34,NNE,22,0.0,0.0,82,0.00,,---,0.00,VWS V14.01,2013-01-09 22:29:00,
2013-01-09 17:34:00,61.2,55.7,30.34,NNE,22,0.0,0.0,82,0.00,,---,0.00,VWS V14.01,2013-01-09 22:34:00,
2013-01-09 17:39:00,61.4,55.9,30.35,NNE,22,0.0,0.0,82,0.00,,---,0.00,VWS V14.01,2013-01-09 22:39:00,
2013-01-09 17:44:00,61.0,55.1,30.35,NNE,22,0.0,0.0,81,0.00,,---,0.00,VWS V14.01,2013-01-09 22:44:00,
2013-01-09 17:49:00,61.2,55.7,30.35,NNE,22,0.0,0.0,82,0.00,,---,0.00,VWS V14.01,2013-01-09 22:49:00,
2013-01-09 17:54:00,61.3,55.8,30.36,NNE,22,0.0,0.0,82,0.00,,---,0.00,VWS V14.01,2013-01-09 22:54:00,
2013-01-09 17:59:00,61.6,56.1,30.36,NNE,22,0.0,0.0,82,0.00,,---,0.00,VWS V14.01,2013-01-09 22:59:00,
2013-01-09 18:04:00,61.7,56.2,30.36,NNE,22,0.0,0.0,82,0.00,,---,0.00,VWS V14.01,2013-01-09 23:04:00,
2013-01-09 18:09:00,61.8,56.2,30.36,NNE,22,0.0,0.0,82,0.00,,---,0.00,VWS V14.01,2013-01-09 23:09:00,
2013-01-09 18:14:00,61.8,56.2,30.36,NNE,22,0.0,0.0,82,0.00,,---,0.00,VWS V14.01,2013-01-09 23:14:00,
2013-01-09 18:19:00,60.3,54.5,30.36,NNE,22,2.0,3.0,81,0.00,,---,0.00,VWS V14.01,2013-01-09 23:19:00,
2013-01-09 18:24:00,59.4,53.9,30.36,NNE,22,0.0,0.0,82,0.00,,---,0.00,VWS V14.01,2013-01-09 23:24:00,
2013-01-09 18:29:00,58.6,53.5,30.36,NNE,22,0.0,0.0,83,0.00,,---,0.00,VWS V14.01,2013-01-09 23:29:00,
2013-01-09 18:34:00,58.0,53.5,30.36,NNE,22,0.0,0.0,85,0.00,,---,0.00,VWS V14.01,2013-01-09 23:34:00,
2013-01-09 18:39:00,57.8,53.7,30.35,NNE,22,0.0,0.0,86,0.00,,---,0.00,VWS V14.01,2013-01-09 23:39:00,
2013-01-09 18:44:00,57.7,53.9,30.35,NNE,22,0.0,0.0,87,0.00,,---,0.00,VWS V14.01,2013-01-09 23:44:00,
2013-01-09 18:49:00,57.4,53.6,30.35,NNE,22,0.0,0.0,87,0.00,,---,0.00,VWS V14.01,2013-01-09 23:49:00,
2013-01-09 18:54:00,57.3,53.5,30.35,NNE,22,0.0,0.0,87,0.00,,---,0.00,VWS V14.01,2013-01-09 23:54:00,
2013-01-09 18:59:00,57.9,54.4,30.35,NNE,22,0.0,0.0,88,0.00,,---,0.00,VWS V14.01,2013-01-09 23:59:00,
2013-01-09 19:04:00,58.2,54.7,30.35,NNE,22,0.0,0.0,88,0.00,,---,0.00,VWS V14.01,2013-01-10 00:04:00,
2013-01-09 19:09:00,58.0,54.2,30.35,NNE,22,0.0,0.0,87,0.00,,---,0.00,VWS V14.01,2013-01-10 00:09:00,
2013-01-09 19:14:00,57.6,53.8,30.35,NNE,22,0.0,0.0,87,0.00,,---,0.00,VWS V14.01,2013-01-10 00:14:00,
2013-01-09 19:19:00,57.3,53.5,30.35,NNE,22,0.0,0.0,87,0.00,,---,0.00,VWS V14.01,2013-01-10 00:19:00,
2013-01-09 19:24:00,56.7,52.9,30.36,NNE,22,0.0,0.0,87,0.00,,---,0.00,VWS V14.01,2013-01-10 00:24:00,
2013-01-09 19:29:00,56.4,52.9,30.36,NNE,22,0.0,0.0,88,0.00,,---,0.00,VWS V14.01,2013-01-10 00:29:00,
2013-01-09 19:34:00,56.3,52.8,30.36,NNE,22,0.0,0.0,88,0.00,,---,0.00,VWS V14.01,2013-01-10 00:34:00,
2013-01-09 19:39:00,56.3,52.8,30.35,NNE,22,0.0,0.0,88,0.00,,---,0.00,VWS V14.01,2013-01-10 00:39:00,
2013-01-09 19:44:00,56.2,52.7,30.35,NNE,22,0.0,0.0,88,0.00,,---,0.00,VWS V14.01,2013-01-10 00:44:00,
2013-01-09 19:49:00,56.0,52.8,30.35,NNE,22,0.0,0.0,89,0.00,,---,0.00,VWS V14.01,2013-01-10 00:49:00,
2013-01-09 19:54:00,55.7,52.2,30.35,NNE,22,0.0,0.0,88,0.00,,---,0.00,VWS V14.01,2013-01-10 00:54:00,
2013-01-09 19:58:00,55.3,52.1,30.35,NNE,22,0.0,0.0,89,0.00,,---,0.00,VWS V14.01,2013-01-10 00:58:00,
2013-01-09 20:03:00,55.3,52.1,30.35,NNE,22,0.0,0.0,89,0.00,,---,0.00,VWS V14.01,2013-01-10 01:03:00,
2013-01-09 20:08:00,55.7,52.8,30.34,NNE,22,0.0,0.0,90,0.00,,---,0.00,VWS V14.01,2013-01-10 01:08:00,
2013-01-09 20:13:00,56.4,53.5,30.34,NNE,22,0.0,0.0,90,0.00,,---,0.00,VWS V14.01,2013-01-10 01:13:00,
2013-01-09 20:18:00,56.7,53.8,30.34,NNE,22,0.0,0.0,90,0.00,,---,0.00,VWS V14.01,2013-01-10 01:18:00,
2013-01-09 20:23:00,56.6,53.4,30.34,NNE,22,0.0,0.0,89,0.00,,---,0.00,VWS V14.01,2013-01-10 01:23:00,
2013-01-09 20:28:00,56.2,53.0,30.34,NNE,22,0.0,0.0,89,0.00,,---,0.00,VWS V14.01,2013-01-10 01:28:00,
2013-01-09 20:33:00,55.8,52.3,30.34,NNE,22,0.0,0.0,88,0.00,,---,0.00,VWS V14.01,2013-01-10 01:33:00,
2013-01-09 20:38:00,55.4,52.2,30.33,NNE,22,0.0,0.0,89,0.00,,---,0.00,VWS V14.01,2013-01-10 01:38:00,
2013-01-09 20:43:00,55.3,52.1,30.33,NNE,22,0.0,0.0,89,0.00,,---,0.00,VWS V14.01,2013-01-10 01:43:00,
2013-01-09 20:48:00,55.1,51.9,30.33,NNE,22,0.0,0.0,89,0.00,,---,0.00,VWS V14.01,2013-01-10 01:48:00,
2013-01-09 20:53:00,55.1,52.2,30.33,NNE,22,1.0,2.0,90,0.00,,---,0.00,VWS V14.01,2013-01-10 01:53:00,
2013-01-09 20:58:00,55.3,52.4,30.33,NNE,22,0.0,0.0,90,0.00,,---,0.00,VWS V14.01,2013-01-10 01:58:00,
2013-01-09 21:03:00,55.4,52.5,30.33,NNE,22,0.0,0.0,90,0.00,,---,0.00,VWS V14.01,2013-01-10 02:03:00,
2013-01-09 21:08:00,55.4,52.2,30.32,NNE,22,0.0,0.0,89,0.00,,---,0.00,VWS V14.01,2013-01-10 02:08:00,
2013-01-09 21:13:00,55.3,52.1,30.32,NNE,22,0.0,0.0,89,0.00,,---,0.00,VWS V14.01,2013-01-10 02:13:00,
2013-01-09 21:18:00,55.2,52.0,30.32,NNE,22,0.0,0.0,89,0.00,,---,0.00,VWS V14.01,2013-01-10 02:18:00,
2013-01-09 21:23:00,55.1,51.9,30.32,NNE,22,0.0,0.0,89,0.00,,---,0.00,VWS V14.01,2013-01-10 02:23:00,
2013-01-09 21:28:00,55.0,52.1,30.32,NNE,22,0.0,0.0,90,0.00,,---,0.00,VWS V14.01,2013-01-10 02:28:00,
2013-01-09 21:33:00,55.0,52.1,30.32,NNE,22,0.0,0.0,90,0.00,,---,0.00,VWS V14.01,2013-01-10 02:33:00,
2013-01-09 21:38:00,55.1,52.2,30.33,NNE,22,0.0,0.0,90,0.00,,---,0.00,VWS V14.01,2013-01-10 02:38:00,
2013-01-09 21:43:00,55.3,52.1,30.33,NNE,22,0.0,0.0,89,0.00,,---,0.00,VWS V14.01,2013-01-10 02:43:00,
2013-01-09 21:48:00,55.4,52.2,30.33,NNE,22,0.0,0.0,89,0.00,,---,0.00,VWS V14.01,2013-01-10 02:48:00,
2013-01-09 21:53:00,55.5,52.3,30.33,NNE,22,0.0,0.0,89,0.00,,---,0.00,VWS V14.01,2013-01-10 02:53:00,
2013-01-09 21:58:00,55.6,52.4,30.33,NNE,22,0.0,0.0,89,0.00,,---,0.00,VWS V14.01,2013-01-10 02:58:00,
2013-01-09 22:03:00,55.7,52.5,30.33,NNE,22,0.0,0.0,89,0.00,,---,0.00,VWS V14.01,2013-01-10 03:03:00,
2013-01-09 22:08:00,55.7,52.2,30.33,NNE,22,1.0,1.0,88,0.00,,---,0.00,VWS V14.01,2013-01-10 03:08:00,
2013-01-09 22:13:00,55.6,52.1,30.33,NNE,22,0.0,3.0,88,0.00,,---,0.00,VWS V14.01,2013-01-10 03:13:00,
2013-01-09 22:18:00,56.0,52.8,30.33,NNE,22,0.0,0.0,89,0.00,,---,0.00,VWS V14.01,2013-01-10 03:18:00,
2013-01-09 22:23:00,56.1,52.6,30.35,NNE,22,0.0,0.0,88,0.00,,---,0.00,VWS V14.01,2013-01-10 03:23:00,
2013-01-09 22:28:00,56.0,52.5,30.35,NNE,22,0.0,0.0,88,0.00,,---,0.00,VWS V14.01,2013-01-10 03:28:00,
2013-01-09 22:33:00,56.0,52.5,30.35,NNE,22,0.0,0.0,88,0.00,,---,0.00,VWS V14.01,2013-01-10 03:33:00,
2013-01-09 22:38:00,56.1,52.6,30.35,NNE,22,0.0,0.0,88,0.00,,---,0.00,VWS V14.01,2013-01-10 03:38:00,
2013-01-09 22:43:00,56.2,52.7,30.35,NNE,22,0.0,0.0,88,0.00,,---,0.00,VWS V14.01,2013-01-10 03:43:00,
2013-01-09 22:48:00,56.4,52.9,30.35,NNE,22,0.0,0.0,88,0.00,,---,0.00,VWS V14.01,2013-01-10 03:48:00,
2013-01-09 22:53:00,56.5,53.0,30.35,NNE,22,3.0,4.0,88,0.00,,---,0.00,VWS V14.01,2013-01-10 03:53:00,
2013-01-09 22:58:00,56.5,52.7,30.35,NNE,22,4.0,5.0,87,0.00,,---,0.00,VWS V14.01,2013-01-10 03:58:00,
2013-01-09 23:03:00,56.4,52.6,30.35,NNE,22,0.0,0.0,87,0.00,,---,0.00,VWS V14.01,2013-01-10 04:03:00,
2013-01-09 23:08:00,56.3,52.5,30.35,NNE,22,0.0,0.0,87,0.00,,---,0.00,VWS V14.01,2013-01-10 04:08:00,
2013-01-09 23:13:00,56.5,53.0,30.35,NNE,22,0.0,0.0,88,0.00,,---,0.00,VWS V14.01,2013-01-10 04:13:00,
2013-01-09 23:18:00,56.6,53.1,30.35,NNE,22,0.0,0.0,88,0.00,,---,0.00,VWS V14.01,2013-01-10 04:18:00,
2013-01-09 23:23:00,56.8,53.3,30.35,NNE,22,0.0,0.0,88,0.00,,---,0.00,VWS V14.01,2013-01-10 04:23:00,
2013-01-09 23:28:00,57.0,53.5,30.35,NNE,22,0.0,0.0,88,0.00,,---,0.00,VWS V14.01,2013-01-10 04:28:00,
2013-01-09 23:33:00,56.9,53.1,30.35,NNE,22,0.0,0.0,87,0.00,,---,0.00,VWS V14.01,2013-01-10 04:33:00,
2013-01-09 23:38:00,56.9,53.1,30.36,NNE,19,0.0,0.0,87,0.00,,---,0.00,VWS V14.01,2013-01-10 04:38:00,
2013-01-09 23:43:00,56.9,53.1,30.36,NNE,19,3.0,4.0,87,0.00,,---,0.00,VWS V14.01,2013-01-10 04:43:00,
2013-01-09 23:48:00,56.9,53.1,30.36,NNE,19,0.0,0.0,87,0.00,,---,0.00,VWS V14.01,2013-01-10 04:48:00,
2013-01-09 23:53:00,56.8,53.0,30.36,NNE,19,0.0,0.0,87,0.00,,---,0.00,VWS V14.01,2013-01-10 04:53:00,
2013-01-09 23:58:00,56.5,52.7,30.36,NNE,19,0.0,0.0,87,0.00,,---,0.00,VWS V14.01,2013-01-10 04:58:00,